Time;durP1;ratioP1;P1;durP2;ratioP2;P2;SDS_P1;SDS_P2;PMS_P1;PMS_P2;Temp;Humidity;BMP_temperature;BMP_pressure;BME280_temperature;BME280_humidity;BME280_pressure;Samples;Min_cycle;Max_cycle;Signal;HPM_P1;HPM_P2
2021/07/11 00:02:22;;;;;;;19.25;14.70;;;16.90;99.90;;;18.40;96.31;100451.28;6251522;22;20012;-87
2021/07/11 00:04:48;;;;;;;18.90;15.65;;;16.90;99.90;;;18.39;96.38;100444.03;6250812;22;20007;-86
2021/07/11 00:07:14;;;;;;;21.48;16.20;;;16.90;99.90;;;18.34;97.45;100446.50;6275357;22;20027;-85
2021/07/11 00:09:44;;;;;;;21.15;15.85;;;16.90;99.90;;;18.16;98.10;100446.63;6250893;22;20442;-85
2021/07/11 00:12:12;;;;;;;21.02;15.43;;;16.90;99.90;;;18.27;97.38;100447.34;6250733;22;20477;-87
2021/07/11 00:14:39;;;;;;;21.25;16.92;;;16.80;99.90;;;18.23;97.55;100440.94;6278344;22;20046;-87
2021/07/11 00:17:08;;;;;;;22.25;15.68;;;16.90;99.90;;;18.30;97.08;100440.84;6253750;22;20041;-87
2021/07/11 00:19:35;;;;;;;14.35;11.68;;;16.80;99.90;;;18.33;97.01;100448.50;6280738;22;20015;-86
2021/07/11 00:22:02;;;;;;;16.35;13.55;;;16.80;99.90;;;18.36;96.89;100450.53;6281744;22;20007;-86
2021/07/11 00:24:28;;;;;;;17.38;14.18;;;16.80;99.90;;;18.27;97.23;100449.38;6254808;22;20027;-86
2021/07/11 00:26:54;;;;;;;16.92;13.65;;;16.80;99.90;;;18.24;96.42;100448.19;6254699;22;20349;-87
2021/07/11 00:29:20;;;;;;;19.55;14.30;;;16.70;99.90;;;18.23;96.74;100442.94;6282138;22;20003;-88
2021/07/11 00:31:50;;;;;;;16.52;13.13;;;16.80;99.90;;;18.23;96.66;100438.09;6255264;22;20004;-86
2021/07/11 00:34:15;;;;;;;17.00;13.20;;;16.70;99.90;;;18.22;96.43;100438.50;6255594;22;20004;-88
2021/07/11 00:36:41;;;;;;;18.02;13.48;;;16.70;99.90;;;18.21;96.82;100432.03;6253864;22;20071;-87
2021/07/11 00:39:07;;;;;;;15.45;11.05;;;16.70;99.90;;;18.23;96.81;100429.63;6256032;22;20007;-88
2021/07/11 00:41:43;;;;;;;17.95;13.68;;;16.70;99.90;;;18.24;96.95;100433.22;6255859;22;20014;-87
2021/07/11 00:44:09;;;;;;;17.50;12.70;;;16.70;99.90;;;18.24;97.04;100428.38;6261692;22;20010;-86
2021/07/11 00:46:37;;;;;;;16.63;13.40;;;16.70;99.90;;;18.26;97.33;100440.09;6295090;22;20014;-86
2021/07/11 00:49:07;;;;;;;17.08;13.00;;;16.70;99.90;;;18.27;97.25;100447.34;6258838;22;20041;-88
2021/07/11 00:51:34;;;;;;;14.27;10.70;;;16.70;99.90;;;18.27;97.29;100438.06;6285583;22;20437;-87
2021/07/11 00:54:00;;;;;;;16.42;13.30;;;16.80;99.90;;;18.27;97.45;100443.72;6259070;22;20437;-89
2021/07/11 00:56:27;;;;;;;17.17;13.30;;;16.70;99.90;;;18.24;97.30;100431.22;6257147;22;20063;-88
2021/07/11 00:58:55;;;;;;;20.17;15.40;;;16.70;99.90;;;18.24;97.84;100444.53;6253327;22;20425;-88
2021/07/11 01:01:57;;;;;;;15.20;12.85;;;16.70;99.90;;;18.27;98.35;100440.88;6251475;22;20008;-88
2021/07/11 01:04:58;;;;;;;18.73;16.08;;;16.70;99.90;;;18.24;98.59;100453.03;6266956;22;20074;-88
2021/07/11 01:07:36;;;;;;;23.88;18.55;;;16.70;99.90;;;18.19;98.84;100454.28;6255356;22;20014;-88
2021/07/11 01:10:37;;;;;;;22.13;17.05;;;16.70;99.90;;;18.23;98.58;100462.75;6256795;22;20390;-87
2021/07/11 01:13:09;;;;;;;25.17;17.80;;;16.70;99.90;;;18.19;98.89;100462.75;6243681;22;20008;-87
2021/07/11 01:15:45;;;;;;;21.45;16.95;;;16.70;99.90;;;18.20;98.63;100461.56;6256092;22;20015;-87
2021/07/11 01:18:17;;;;;;;28.35;20.80;;;16.60;99.90;;;18.14;99.19;100456.75;6254274;22;20016;-85
2021/07/11 01:21:02;;;;;;;26.92;19.35;;;16.70;99.90;;;18.24;99.13;100462.31;6278536;22;20284;-89
2021/07/11 01:24:16;;;;;;;30.95;22.17;;;16.70;99.90;;;18.22;99.26;100455.47;6280928;22;20337;-89
2021/07/11 01:26:48;;;;;;;33.15;22.92;;;16.70;99.90;;;18.20;100.00;100458.72;6279133;22;20007;-89
2021/07/11 01:29:18;;;;;;;33.25;25.00;;;16.70;99.90;;;18.21;99.67;100456.69;6252370;22;20115;-87
2021/07/11 01:31:46;;;;;;;34.08;25.83;;;16.70;99.90;;;18.25;99.14;100454.63;6282912;22;20004;-86
2021/07/11 01:34:14;;;;;;;38.72;27.20;;;16.70;99.90;;;18.25;99.20;100449.78;6282336;22;20012;-88
2021/07/11 01:36:42;;;;;;;37.17;28.20;;;16.70;99.90;;;18.20;99.19;100450.25;6284944;22;20438;-88
2021/07/11 01:39:11;;;;;;;36.15;25.98;;;16.80;99.90;;;18.22;99.35;100461.13;6284675;22;20061;-88
2021/07/11 01:41:40;;;;;;;36.33;27.45;;;16.80;99.90;;;18.16;99.12;100454.31;6257082;22;20095;-89
2021/07/11 01:44:09;;;;;;;36.88;25.48;;;16.80;99.90;;;18.20;98.89;100449.44;6283336;22;20301;-86
2021/07/11 01:46:38;;;;;;;33.05;23.88;;;16.70;99.90;;;18.24;98.38;100453.81;6283264;22;19999;-90
2021/07/11 01:49:04;;;;;;;36.20;24.77;;;16.70;99.90;;;18.09;99.21;100457.97;6255565;22;20004;-89
2021/07/11 01:51:31;;;;;;;31.35;22.92;;;16.70;99.90;;;18.21;98.57;100468.00;6256488;22;20011;-88
2021/07/11 01:53:58;;;;;;;33.53;24.23;;;16.70;99.90;;;18.11;98.43;100461.19;6256272;22;20011;-89
2021/07/11 01:56:24;;;;;;;29.45;21.45;;;16.70;99.90;;;18.04;99.41;100468.94;6255992;22;20007;-87
2021/07/11 01:58:50;;;;;;;27.73;22.27;;;16.60;99.90;;;18.04;98.58;100466.91;6253631;22;20011;-86
2021/07/11 02:01:18;;;;;;;24.08;18.85;;;16.60;99.90;;;17.96;98.86;100473.81;6253594;22;20004;-89
2021/07/11 02:03:44;;;;;;;25.48;19.27;;;16.50;99.90;;;17.86;98.56;100475.47;6254224;22;20007;-90
2021/07/11 02:06:14;;;;;;;24.30;17.40;;;16.50;99.90;;;17.74;99.01;100489.25;6255843;22;20031;-89
2021/07/11 02:08:42;;;;;;;24.80;18.35;;;16.50;99.90;;;17.76;98.94;100476.31;6281208;22;20015;-88
2021/07/11 02:11:14;;;;;;;22.33;17.23;;;16.40;99.90;;;17.72;99.18;100486.84;6278981;22;20019;-87
2021/07/11 02:14:23;;;;;;;22.02;16.38;;;16.40;99.90;;;17.62;98.81;100484.88;6252266;22;20028;-88
2021/07/11 02:17:14;;;;;;;23.02;15.95;;;16.30;99.90;;;17.80;98.21;100490.44;6245396;22;20012;-87
2021/07/11 02:19:41;;;;;;;22.02;16.30;;;16.30;99.90;;;17.75;98.42;100488.06;6252659;22;20007;-88
2021/07/11 02:22:14;;;;;;;23.23;16.92;;;16.30;99.90;;;17.73;99.04;100487.63;6254353;22;20356;-88
2021/07/11 02:24:45;;;;;;;22.33;17.00;;;16.30;99.90;;;17.77;98.52;100483.59;6279991;22;20004;-89
2021/07/11 02:27:12;;;;;;;24.17;16.08;;;16.30;99.90;;;17.79;98.39;100489.63;6280435;22;20012;-89
2021/07/11 02:29:44;;;;;;;21.85;15.68;;;16.30;99.90;;;17.84;97.99;100491.22;6283721;22;20029;-89
2021/07/11 02:32:15;;;;;;;19.83;14.45;;;16.30;99.90;;;17.84;97.84;100486.38;6274573;22;20033;-87
2021/07/11 02:34:44;;;;;;;22.20;15.18;;;16.30;99.90;;;17.85;97.56;100481.56;6302354;22;20008;-88
2021/07/11 02:37:21;;;;;;;24.20;17.30;;;16.30;99.90;;;17.75;98.20;100488.88;6272831;22;19995;-87
2021/07/11 02:39:54;;;;;;;21.77;15.57;;;16.30;99.90;;;17.82;97.88;100488.00;6259807;22;20058;-89
2021/07/11 02:42:23;;;;;;;18.45;13.57;;;16.30;99.90;;;17.81;97.61;100477.94;6254680;22;20050;-85
2021/07/11 02:44:55;;;;;;;24.02;16.20;;;16.30;99.90;;;17.77;97.55;100474.31;6255056;22;20000;-87
2021/07/11 02:47:31;;;;;;;22.73;14.82;;;16.30;99.90;;;17.76;97.75;100473.50;6280833;22;20007;-89
2021/07/11 02:50:07;;;;;;;20.60;14.40;;;16.30;99.90;;;17.69;97.95;100482.00;6255389;22;20012;-86
2021/07/11 02:52:35;;;;;;;18.10;13.38;;;16.20;99.90;;;17.74;97.54;100483.59;6280711;22;20065;-87
2021/07/11 02:55:11;;;;;;;19.58;15.13;;;16.30;99.90;;;17.69;97.53;100481.22;6281576;22;20008;-88
2021/07/11 02:57:41;;;;;;;18.10;13.50;;;16.20;99.90;;;17.73;97.57;100479.97;6253534;22;20004;-88
2021/07/11 03:00:10;;;;;;;18.02;12.35;;;16.20;99.90;;;17.71;97.62;100473.94;6255685;22;20064;-87
2021/07/11 03:02:40;;;;;;;19.15;13.50;;;16.20;99.90;;;17.71;97.25;100475.97;6254629;22;20061;-88
2021/07/11 03:05:17;;;;;;;20.23;14.52;;;16.20;99.90;;;17.63;97.85;100477.19;6281440;22;20047;-88
2021/07/11 03:07:43;;;;;;;18.83;14.15;;;16.10;99.90;;;17.61;97.76;100479.63;6268679;22;20008;-86
2021/07/11 03:10:11;;;;;;;21.27;14.02;;;16.10;99.90;;;17.57;97.96;100492.94;6263222;22;20034;-87
2021/07/11 03:12:37;;;;;;;20.98;13.60;;;16.10;99.90;;;17.63;97.57;100488.50;6280340;22;20041;-87
2021/07/11 03:15:05;;;;;;;17.73;12.32;;;16.10;99.90;;;17.65;97.71;100483.25;6255612;22;20008;-86
2021/07/11 03:17:34;;;;;;;18.75;12.32;;;16.10;99.90;;;17.66;97.68;100484.88;6255300;22;20014;-90
2021/07/11 03:20:05;;;;;;;16.38;11.15;;;16.10;99.90;;;17.62;97.80;100490.53;6256776;22;20091;-91
2021/07/11 03:22:37;;;;;;;18.67;12.70;;;16.10;99.90;;;17.63;97.50;100500.59;6256249;22;20034;-87
2021/07/11 03:25:09;;;;;;;19.63;13.30;;;16.10;99.90;;;17.62;97.95;100504.66;6255838;22;20011;-88
2021/07/11 03:27:37;;;;;;;21.30;15.18;;;16.10;99.90;;;17.59;98.35;100511.13;6257504;22;20012;-88
2021/07/11 03:30:16;;;;;;;22.45;14.38;;;16.20;99.90;;;17.60;98.55;100511.91;6284057;22;20011;-89
2021/07/11 03:33:07;;;;;;;19.17;13.80;;;16.10;99.90;;;17.63;98.67;100509.06;6260690;22;20092;-89
2021/07/11 03:35:43;;;;;;;23.80;14.65;;;16.10;99.90;;;17.64;98.59;100515.53;6283575;22;20011;-87
2021/07/11 03:38:17;;;;;;;;;;;16.10;99.90;;;17.63;98.66;100514.72;6278221;22;20370;-88
2021/07/11 03:40:47;;;;;;;21.95;13.60;;;16.10;99.90;;;17.63;98.58;100511.88;6252216;22;19982;-90
2021/07/11 03:43:16;;;;;;;17.20;12.65;;;16.10;99.90;;;17.62;98.57;100510.31;6253355;22;20353;-87
2021/07/11 03:45:47;;;;;;;24.45;15.32;;;16.10;99.90;;;17.58;98.74;100517.16;6252531;22;20151;-87
2021/07/11 03:48:22;;;;;;;26.45;16.23;;;16.10;99.90;;;17.56;99.67;100522.44;6253030;22;20007;-88
2021/07/11 03:50:58;;;;;;;24.80;15.83;;;16.10;99.90;;;17.51;99.71;100525.63;6251685;22;20003;-88
2021/07/11 03:53:31;;;;;;;24.85;15.60;;;16.10;99.90;;;17.50;99.74;100524.81;6278826;22;20505;-88
2021/07/11 03:56:00;;;;;;;26.98;16.38;;;16.10;99.90;;;17.47;100.00;100527.66;6252983;22;20109;-89
2021/07/11 03:58:34;;;;;;;20.13;14.77;;;16.00;99.90;;;17.50;100.00;100530.47;6253463;22;20404;-88
2021/07/11 04:01:01;;;;;;;20.10;13.25;;;16.00;99.90;;;17.55;100.00;100540.53;6252693;22;20008;-90
2021/07/11 04:03:35;;;;;;;21.67;14.77;;;16.00;99.90;;;17.55;100.00;100526.41;6279505;22;20003;-89
2021/07/11 04:06:03;;;;;;;23.58;15.00;;;16.10;99.90;;;17.55;100.00;100530.09;6278274;22;20004;-87
2021/07/11 04:08:29;;;;;;;27.10;17.42;;;16.00;99.90;;;17.61;100.00;100525.63;6251902;22;20012;-87
2021/07/11 04:10:58;;;;;;;26.85;16.77;;;16.10;99.90;;;17.59;100.00;100521.59;6252280;22;20018;-90
2021/07/11 04:13:25;;;;;;;22.20;14.98;;;16.10;99.90;;;17.65;100.00;100532.06;6252301;22;20425;-88
2021/07/11 04:16:02;;;;;;;27.52;16.85;;;16.10;99.90;;;17.64;100.00;100526.81;6279977;22;20015;-87
2021/07/11 04:18:37;;;;;;;25.05;16.27;;;16.10;99.90;;;17.62;100.00;100535.72;6253643;22;20506;-88
2021/07/11 04:21:05;;;;;;;24.33;14.97;;;16.10;99.90;;;17.60;100.00;100526.03;6255794;22;20014;-90
2021/07/11 04:23:34;;;;;;;29.25;18.35;;;16.10;99.90;;;17.47;100.00;100522.00;6254172;22;20253;-89
2021/07/11 04:26:03;;;;;;;25.80;17.50;;;16.00;99.90;;;17.55;100.00;100526.41;6253733;22;20000;-87
2021/07/11 04:28:36;;;;;;;28.02;18.33;;;16.00;99.90;;;17.54;100.00;100531.25;6243489;22;20035;-86
2021/07/11 04:31:05;;;;;;;25.85;17.80;;;16.00;99.90;;;17.60;100.00;100534.50;6250212;23;20007;-86
2021/07/11 04:33:32;;;;;;;30.80;18.80;;;16.10;99.90;;;17.61;100.00;100531.28;6222787;23;20004;-85
2021/07/11 04:36:00;;;;;;;34.13;20.58;;;16.10;99.90;;;17.56;100.00;100531.72;6223938;23;20004;-87
2021/07/11 04:38:26;;;;;;;29.73;18.50;;;16.10;99.90;;;17.64;100.00;100521.97;6217671;23;20008;-85
2021/07/11 04:40:52;;;;;;;29.02;19.23;;;16.10;99.90;;;17.59;100.00;100525.25;6193408;23;20497;-86
2021/07/11 04:43:18;;;;;;;27.77;17.90;;;16.10;99.90;;;17.69;100.00;100534.91;6192913;23;20004;-87
2021/07/11 04:45:46;;;;;;;34.25;20.75;;;16.10;99.90;;;17.62;100.00;100529.25;6192495;23;20005;-88
2021/07/11 04:48:14;;;;;;;31.52;18.70;;;16.10;99.90;;;17.67;100.00;100540.94;6218111;23;20013;-86
2021/07/11 04:50:45;;;;;;;29.52;18.15;;;16.20;99.90;;;17.73;100.00;100532.84;6219156;23;20012;-85
2021/07/11 04:53:14;;;;;;;24.63;15.75;;;16.20;99.90;;;17.79;100.00;100536.84;6202546;23;20020;-85
2021/07/11 04:55:45;;;;;;;22.17;14.32;;;16.20;99.90;;;17.82;100.00;100538.84;6201765;23;20067;-85
2021/07/11 04:58:12;;;;;;;23.77;15.25;;;16.20;99.90;;;17.87;100.00;100541.25;6229164;23;20031;-86
2021/07/11 05:00:40;;;;;;;24.85;15.38;;;16.30;99.90;;;17.89;100.00;100539.63;6228663;23;20449;-87
2021/07/11 05:03:07;;;;;;;28.95;18.23;;;16.30;99.90;;;17.83;100.00;100541.28;6193653;23;20031;-84
2021/07/11 05:05:36;;;;;;;21.90;15.45;;;16.30;99.90;;;17.85;100.00;100538.06;6190896;23;20062;-84
2021/07/11 05:08:05;;;;;;;27.05;16.33;;;16.30;99.90;;;17.87;100.00;100541.25;6190374;23;20064;-84
2021/07/11 05:10:32;;;;;;;29.15;17.95;;;16.30;99.90;;;17.87;100.00;100549.75;6190937;23;20009;-83
2021/07/11 05:12:58;;;;;;;25.75;16.58;;;16.30;99.90;;;17.77;100.00;100540.09;6191095;23;20055;-84
2021/07/11 05:15:24;;;;;;;28.65;18.52;;;16.30;99.90;;;17.92;100.00;100540.03;6218499;23;20004;-84
2021/07/11 05:17:50;;;;;;;29.73;18.52;;;16.30;99.90;;;17.97;100.00;100543.25;6189991;23;20438;-84
2021/07/11 05:20:16;;;;;;;28.60;18.30;;;16.40;99.90;;;17.97;100.00;100545.25;6191411;23;20342;-86
2021/07/11 05:22:42;;;;;;;25.95;16.98;;;16.40;99.90;;;17.98;100.00;100544.84;6193518;23;20411;-85
2021/07/11 05:25:08;;;;;;;24.27;16.63;;;16.40;99.90;;;18.02;99.90;100544.81;6193071;23;20011;-85
2021/07/11 05:27:35;;;;;;;27.23;18.52;;;16.40;99.90;;;18.04;100.00;100548.06;6202911;23;20012;-86
2021/07/11 05:30:05;;;;;;;29.23;17.25;;;16.40;99.90;;;18.09;100.00;100539.94;6222927;23;20038;-85
2021/07/11 05:32:30;;;;;;;24.70;15.68;;;16.50;99.90;;;18.16;100.00;100548.38;6222351;23;20422;-86
2021/07/11 05:34:56;;;;;;;21.05;14.55;;;16.50;99.90;;;18.18;99.65;100539.47;6249650;23;20083;-85
2021/07/11 05:37:22;;;;;;;29.70;17.20;;;16.50;99.90;;;18.18;99.83;100545.13;6222453;23;20043;-84
2021/07/11 05:39:48;;;;;;;22.30;16.10;;;16.50;99.90;;;18.21;99.76;100549.97;6249342;23;20054;-87
2021/07/11 05:42:14;;;;;;;22.33;15.88;;;16.60;99.90;;;18.22;99.66;100549.56;6224124;23;20083;-83
2021/07/11 05:44:41;;;;;;;28.60;17.63;;;16.60;99.90;;;18.19;99.74;100546.75;6249517;23;20004;-86
2021/07/11 05:47:07;;;;;;;27.98;18.05;;;16.60;99.90;;;18.27;99.41;100551.94;6251308;23;20000;-83
2021/07/11 05:49:33;;;;;;;26.05;16.42;;;16.60;99.90;;;18.31;98.92;100554.75;6252112;23;20005;-83
2021/07/11 05:52:00;;;;;;;29.83;18.70;;;16.70;99.90;;;18.41;99.18;100551.06;6251739;23;20023;-85
2021/07/11 05:54:26;;;;;;;27.30;18.27;;;16.80;99.90;;;18.50;98.80;100556.28;6226378;23;20012;-87
2021/07/11 05:56:51;;;;;;;27.42;18.20;;;16.80;99.90;;;18.53;97.52;100549.78;6252548;23;20119;-88
2021/07/11 05:59:17;;;;;;;33.10;18.95;;;16.80;99.90;;;18.56;97.64;100551.81;6226122;23;20008;-86
2021/07/11 06:01:43;;;;;;;24.75;16.30;;;16.90;99.90;;;18.67;97.11;100559.00;6227922;23;20015;-89
2021/07/11 06:04:09;;;;;;;24.15;16.83;;;16.90;99.90;;;18.75;96.78;100560.53;6228967;23;20011;-87
2021/07/11 06:06:35;;;;;;;27.23;17.77;;;17.10;99.90;;;18.70;96.27;100566.66;6228689;23;20384;-85
2021/07/11 06:09:01;;;;;;;21.75;16.15;;;17.10;99.90;;;18.80;95.63;100564.97;6254308;23;20008;-83
2021/07/11 06:11:27;;;;;;;23.23;15.52;;;17.10;99.90;;;18.82;95.24;100554.03;6228598;23;20019;-86
2021/07/11 06:13:53;;;;;;;24.98;17.20;;;17.10;99.90;;;18.96;95.73;100562.41;6252478;23;20035;-87
2021/07/11 06:16:19;;;;;;;24.83;16.80;;;17.30;99.90;;;18.96;94.58;100565.25;6228495;23;20008;-86
2021/07/11 06:18:45;;;;;;;22.67;15.30;;;17.30;99.90;;;19.00;94.09;100568.84;6228148;23;20012;-86
2021/07/11 06:21:11;;;;;;;25.45;16.30;;;17.30;99.90;;;18.81;94.21;100572.25;6229146;23;20330;-88
2021/07/11 06:23:37;;;;;;;25.98;16.77;;;17.30;99.90;;;18.84;94.54;100566.56;6228198;23;20004;-87
2021/07/11 06:26:03;;;;;;;21.55;14.35;;;17.30;99.90;;;18.93;94.27;100569.72;6255037;23;20008;-85
2021/07/11 06:28:30;;;;;;;21.85;15.60;;;17.30;99.90;;;18.90;94.43;100576.22;6221155;23;20009;-86
2021/07/11 06:30:56;;;;;;;23.10;16.17;;;17.30;99.90;;;18.86;95.24;100577.44;6233264;23;20039;-84
2021/07/11 06:33:23;;;;;;;20.63;14.77;;;17.30;99.90;;;18.90;93.54;100572.56;6240462;22;20009;-88
2021/07/11 06:35:49;;;;;;;22.45;14.95;;;17.30;99.90;;;18.92;93.48;100562.44;6225517;23;20005;-87
2021/07/11 06:38:15;;;;;;;19.35;13.93;;;17.40;99.90;;;19.05;94.24;100570.41;6225788;23;20012;-87
2021/07/11 06:40:43;;;;;;;17.98;12.60;;;17.50;99.90;;;19.40;92.93;100565.25;6225535;23;20008;-88
2021/07/11 06:43:09;;;;;;;19.70;14.02;;;17.70;99.90;;;19.50;91.71;100560.69;6225604;23;20487;-83
2021/07/11 06:45:35;;;;;;;19.05;14.32;;;17.80;99.90;;;19.73;90.43;100562.88;6246404;23;20009;-87
2021/07/11 06:48:01;;;;;;;21.25;15.52;;;17.90;99.90;;;19.81;88.92;100559.53;6248126;23;20415;-88
2021/07/11 06:50:26;;;;;;;22.00;14.35;;;18.10;99.90;;;20.04;89.29;100573.00;6223315;23;20032;-87
2021/07/11 06:52:52;;;;;;;17.38;13.23;;;18.30;99.90;;;20.14;87.74;100574.91;6223791;23;20008;-87
2021/07/11 06:55:19;;;;;;;18.55;13.38;;;18.40;99.90;;;20.20;88.37;100575.22;6225247;23;20009;-86
2021/07/11 06:57:45;;;;;;;16.35;12.02;;;18.50;99.90;;;20.58;85.86;100582.41;6226399;23;20008;-87
2021/07/11 07:00:15;;;;;;;12.27;10.50;;;18.70;99.90;;;21.01;83.41;100579.72;6224701;23;20058;-88
2021/07/11 07:02:42;;;;;;;14.57;11.48;;;19.10;99.90;;;21.27;82.27;100580.94;6225104;23;20000;-86
2021/07/11 07:05:10;;;;;;;16.52;12.55;;;19.30;99.90;;;21.05;80.12;100591.84;6223963;23;20009;-87
2021/07/11 07:07:39;;;;;;;14.23;10.95;;;19.30;99.90;;;21.01;80.04;100593.91;6221786;23;20018;-88
2021/07/11 07:10:09;;;;;;;18.52;13.55;;;19.30;99.90;;;20.67;82.46;100601.78;6223265;23;20079;-88
2021/07/11 07:12:37;;;;;;;16.73;12.05;;;19.20;99.90;;;20.65;81.75;100604.22;6222211;23;20062;-87
2021/07/11 07:15:06;;;;;;;16.48;11.70;;;19.20;99.90;;;20.73;82.09;100597.22;6220166;23;20088;-86
2021/07/11 07:17:33;;;;;;;17.05;12.82;;;19.10;99.90;;;20.83;81.33;100594.22;6219787;23;20040;-87
2021/07/11 07:19:59;;;;;;;13.38;10.63;;;19.30;99.90;;;21.36;80.99;100599.03;6217723;23;20012;-86
2021/07/11 07:22:25;;;;;;;16.65;11.77;;;19.50;99.90;;;21.70;79.27;100603.69;6219456;23;20473;-84
2021/07/11 07:24:50;;;;;;;13.77;9.70;;;19.70;99.90;;;22.08;78.27;100604.19;6221454;23;20008;-85
2021/07/11 07:27:16;;;;;;;13.60;10.00;;;20.00;99.90;;;21.83;77.45;100601.81;6244671;23;20020;-86
2021/07/11 07:29:42;;;;;;;15.70;11.93;;;20.00;99.90;;;21.76;77.10;100607.63;6220151;23;20004;-89
2021/07/11 07:32:08;;;;;;;14.20;10.07;;;20.00;99.90;;;22.00;76.79;100603.50;6219839;23;20019;-86
2021/07/11 07:34:34;;;;;;;16.45;12.50;;;20.00;99.90;;;21.72;76.77;100604.88;6219630;23;20092;-87
2021/07/11 07:37:01;;;;;;;12.73;10.90;;;20.00;99.90;;;21.48;76.82;100594.78;6219753;23;20020;-85
2021/07/11 07:39:28;;;;;;;15.10;11.90;;;19.80;99.90;;;21.82;76.28;100589.63;6221144;23;20001;-86
2021/07/11 07:41:55;;;;;;;14.52;11.88;;;19.90;99.90;;;21.59;76.22;100588.88;6219683;23;20015;-86
2021/07/11 07:44:22;;;;;;;15.40;11.27;;;19.90;99.90;;;21.85;75.96;100585.91;6219009;23;20086;-86
2021/07/11 07:46:47;;;;;;;11.73;10.45;;;20.00;99.90;;;21.89;75.37;100591.56;6218309;23;20005;-86
2021/07/11 07:49:13;;;;;;;14.32;11.43;;;20.00;99.90;;;21.59;76.16;100591.72;6243739;23;20013;-84
2021/07/11 07:51:40;;;;;;;13.02;10.65;;;19.90;99.90;;;21.75;75.45;100586.94;6218611;23;20043;-84
2021/07/11 07:54:07;;;;;;;14.63;10.50;;;20.00;99.90;;;21.63;76.67;100592.47;6218828;23;20004;-85
2021/07/11 07:56:33;;;;;;;12.10;10.75;;;19.90;99.90;;;21.78;75.97;100586.06;6218584;23;20010;-86
2021/07/11 07:58:59;;;;;;;11.88;9.68;;;19.90;99.90;;;21.86;75.91;100589.56;6219388;23;20037;-85
2021/07/11 08:01:26;;;;;;;14.98;11.32;;;20.00;99.90;;;21.97;75.93;100599.50;6244478;23;20004;-86
2021/07/11 08:03:52;;;;;;;16.80;11.43;;;20.00;99.90;;;21.96;75.64;100608.50;6221188;23;20000;-84
2021/07/11 08:06:18;;;;;;;11.13;9.70;;;20.00;99.90;;;22.08;75.47;100602.16;6220222;23;20009;-86
2021/07/11 08:08:44;;;;;;;12.18;9.05;;;20.10;99.90;;;22.15;74.95;100613.38;6220038;23;20011;-85
2021/07/11 08:11:10;;;;;;;13.73;10.68;;;20.20;99.90;;;22.02;73.98;100610.41;6219695;23;20031;-85
2021/07/11 08:13:38;;;;;;;13.20;10.57;;;20.20;99.90;;;22.35;73.70;100614.16;6218827;23;20043;-85
2021/07/11 08:16:08;;;;;;;13.20;10.48;;;20.30;99.90;;;22.50;73.64;100614.66;6219456;23;20008;-87
2021/07/11 08:18:34;;;;;;;13.02;10.13;;;20.50;99.90;;;22.73;73.33;100613.75;6243160;23;20004;-85
2021/07/11 08:21:00;;;;;;;14.15;11.10;;;20.70;99.90;;;23.27;71.20;100616.91;6220728;23;20008;-86
2021/07/11 08:23:26;;;;;;;13.55;10.60;;;21.10;99.90;;;23.30;69.68;100619.69;6219919;23;20086;-87
2021/07/11 08:25:52;;;;;;;10.40;8.93;;;21.50;99.90;;;23.76;68.34;100623.41;6218227;23;20005;-86
2021/07/11 08:28:18;;;;;;;13.90;10.32;;;21.70;99.90;;;24.20;64.91;100619.72;6217214;23;20059;-85
2021/07/11 08:30:44;;;;;;;12.27;8.77;;;22.00;99.90;;;24.29;65.00;100617.00;6242247;23;20446;-87
2021/07/11 08:33:11;;;;;;;11.85;9.38;;;22.10;99.90;;;24.16;65.05;100616.16;6216824;23;20008;-87
2021/07/11 08:35:38;;;;;;;12.77;10.55;;;22.10;99.90;;;23.70;65.05;100623.13;6243996;23;20059;-88
2021/07/11 08:38:04;;;;;;;15.82;9.98;;;21.90;99.90;;;23.57;65.62;100619.41;6219529;23;20111;-85
2021/07/11 08:40:35;;;;;;;10.05;8.77;;;21.80;99.90;;;23.65;67.08;100620.00;6219021;23;20035;-88
2021/07/11 08:43:06;;;;;;;10.63;8.90;;;21.80;99.90;;;24.25;65.03;100606.91;6221991;23;20005;-87
2021/07/11 08:45:34;;;;;;;10.35;9.25;;;22.10;99.90;;;24.45;65.81;100624.66;6219655;23;20008;-89
2021/07/11 08:48:03;;;;;;;10.52;9.35;;;22.40;99.90;;;24.68;63.54;100618.66;6217707;23;20028;-86
2021/07/11 08:50:34;;;;;;;11.48;9.20;;;22.50;99.90;;;24.53;63.72;100621.13;6223444;23;19996;-87
2021/07/11 08:53:01;;;;;;;12.57;10.18;;;22.40;99.90;;;24.04;65.22;100626.25;6236398;23;20024;-85
2021/07/11 08:55:28;;;;;;;11.88;10.65;;;22.10;99.90;;;23.66;66.62;100628.13;6219829;23;20188;-88
2021/07/11 08:58:02;;;;;;;12.45;9.52;;;21.80;99.90;;;23.72;67.81;100631.25;6217635;23;20032;-87
2021/07/11 09:00:37;;;;;;;13.68;12.07;;;21.70;99.90;;;23.43;67.56;100629.16;6219856;23;20027;-86
2021/07/11 09:03:07;;;;;;;15.00;12.98;;;21.50;99.90;;;22.92;69.36;100630.78;6217467;23;20091;-88
2021/07/11 09:05:40;;;;;;;14.63;12.27;;;21.30;99.90;;;22.66;69.28;100631.00;6217118;23;20008;-89
2021/07/11 09:08:24;;;;;;;14.93;11.93;;;21.00;99.90;;;22.66;68.86;100628.16;6218732;23;20019;-87
2021/07/11 09:10:58;;;;;;;12.63;11.25;;;20.90;99.90;;;22.57;68.98;100626.66;6218602;23;20008;-89
2021/07/11 09:13:31;;;;;;;14.02;9.82;;;20.70;99.90;;;22.61;70.06;100626.59;6217841;23;20032;-86
2021/07/11 09:16:00;;;;;;;15.38;11.90;;;20.70;99.90;;;22.68;70.78;100625.66;6219390;23;20008;-84
2021/07/11 09:18:31;;;;;;;14.65;10.70;;;20.70;99.90;;;22.72;70.10;100626.38;6223300;23;20016;-86
2021/07/11 09:21:11;;;;;;;15.32;12.05;;;20.70;99.90;;;22.47;70.11;100629.78;6222486;23;20073;-87
2021/07/11 09:23:39;;;;;;;15.68;12.43;;;20.70;99.90;;;22.21;71.57;100631.53;6225477;23;20035;-87
2021/07/11 09:26:12;;;;;;;15.90;12.75;;;20.50;99.90;;;22.18;72.55;100637.31;6225738;23;20012;-85
2021/07/11 09:29:32;;;;;;;13.93;12.40;;;20.50;99.90;;;22.42;71.60;100638.81;5078403;28;20372;-88
2021/07/11 09:31:58;;;;;;;15.75;12.23;;;20.50;99.90;;;22.37;71.91;100639.34;5090819;28;20037;-89
2021/07/11 09:34:28;;;;;;;13.63;11.00;;;20.50;99.90;;;22.59;70.57;100638.44;5055589;28;20449;-89
2021/07/11 09:37:15;;;;;;;13.50;11.75;;;20.60;99.90;;;22.73;70.49;100645.09;5054070;28;20087;-88
2021/07/11 09:39:58;;;;;;;13.98;10.63;;;20.70;99.90;;;23.10;70.35;100638.91;5054210;28;20458;-88
2021/07/11 09:42:44;;;;;;;14.70;12.32;;;21.00;99.90;;;23.41;67.99;100645.88;5053594;28;20113;-88
2021/07/11 09:45:28;;;;;;;15.23;11.85;;;21.20;99.90;;;23.53;67.68;100647.22;5053908;28;20036;-85
2021/07/11 09:48:12;;;;;;;12.40;10.52;;;21.50;99.90;;;23.79;67.04;100648.94;5054142;28;20092;-86
2021/07/11 09:50:40;;;;;;;15.70;11.93;;;21.70;99.90;;;24.26;65.60;100648.50;5055643;28;20288;-83
2021/07/11 09:53:06;;;;;;;15.57;12.70;;;22.10;99.90;;;24.58;61.75;100643.44;5054816;28;20029;-83
2021/07/11 09:55:36;;;;;;;13.25;11.38;;;22.40;99.90;;;24.56;62.99;100645.94;5054965;28;20025;-85
2021/07/11 09:58:08;;;;;;;12.98;10.95;;;22.50;99.90;;;24.57;63.54;100647.53;5055171;28;20083;-84
2021/07/11 10:00:41;;;;;;;15.48;12.38;;;22.50;99.90;;;24.45;63.41;100650.38;5055469;28;20025;-84
2021/07/11 10:03:12;;;;;;;20.73;16.92;;;22.40;99.90;;;23.70;64.02;100645.13;5052648;28;20055;-83
2021/07/11 10:05:41;;;;;;;16.83;14.05;;;22.10;99.90;;;23.78;66.41;100652.25;5052773;28;20443;-85
2021/07/11 10:08:07;;;;;;;17.35;14.48;;;22.00;99.90;;;24.05;65.65;100655.56;5052851;28;20576;-86
2021/07/11 10:10:38;;;;;;;18.95;15.02;;;22.10;99.90;;;24.79;63.42;100659.09;5052922;28;20029;-83
2021/07/11 10:13:07;;;;;;;22.23;16.63;;;22.60;99.90;;;24.87;61.81;100648.28;5053184;28;20458;-85